Timeline UpdatesTrip UpdatesNews PostsPvt PostsTravel TipsAdmin PostsConv PostsFollowed PostsChat RequestsBlog PostsPNR Posts

Disclaimer
Search
 
 
Fri Aug 1, 2014 07:14:13 ISTHomeTrainsΣChainsAtlasPNRForumGalleryNewsFAQTripsMembersLoginFeedback
No Recent News for this Train
Other Trains in the News **new
Latest...
Will be diverted via Malkhedi-Agasod chord line avoiding Bina station from 24th march 2014
Wed Jan 29, 2014 (09:06PM)
⇐ Return Journey: Train# 18508

18507/Hirakud (Hirakund) Express

Mar 24 2014 (6:58PM)
Change Departure Station:
Change Arrival Station:
Post a Train Travel TipPost a Train Travel Tip **new
Post a Comment/Question/Picture/VideoPost a Comment/Question/Picture/Video
Pantry/Catering
✓ Pantry Car Avbl
✓ Catering Avbl
Loco/Rake Reversals
SBP/Sambalpur Junction (3); JSG/Jharsuguda Junction (5); TLHR/Talcher;
RSA - Rake Sharing
Rake/Coach Composition
LOCO-SLR-GEN-GEN-GEN-GEN-S1-S2-S3-S4-S5-S6-PC-S7-S8-S9-S10-A1-B1-B2-GEN-GEN-SLR;; News/163411
Loco
VSKP-JSG- WDM-3A VSKP JSG-ASR -WAP-1/4 GZB Blog entry #541879-2
News    PNR    Forum    Time-Table    Availability    Fare Chart    Map    Arr/Dep History    Trips    Gallery    ΣChains    X/O    Timeline    
Travel Time: 11h 40m    7 halts    Distance: 590 km    Avg Speed: 50 km/hr
Type: Mail/Express
Zone: ECoR/East Coast
Departs @ 12:15 (Avg 1h 9m late)
Platform# 2
S  W  S
Mathura Junction/MTJ 
Arrives @ 23:55 (Avg 31m late)
Platform# 2
S  W  S
Amritsar Junction/ASR 

7 halts. 96 intermediate Stations between Mathura Junction and Amritsar Junction

Show ALL intermediate Stations  Show Old Time-Table

#CodeStation NameX/OArrivesAvgDepartsAvgHaltPFDay#KmSpeedElevZoneAddress
1VSKPVisakhapatnam Junction (8)  -23:50+181-1984.56711mECoRVishakhapatnam 530001, Andhra Pradesh
2VZMVizianagaram Junction (5)XO  00:45+1700:50+175m--2-1923.47963mECoRVizianagaram, Andhra Pradesh
3CHESrikakulam Road (4)  01:43+1201:45+112m--2-1853.86034mECoRsrikakulam road ph .no. 08942-287222, Andhra Pradesh
4PSAPalasa (3)  02:58+603:00+82m--2-1780.98131mECoRKasibugga, Andhra Pradesh
5BAMBrahmapur (3)X  03:55+1704:00+175m12-1706.57227mECoRBerhampur, Odisha
6CAPChatrapur  04:18+2104:19+221m--2-1685.17136mECoRChatrapur, Odisha
7BALUBalugaon (3)  05:05+2105:06+221m--2-1630.45411mECoR752030, Odisha
8KURKhurda Road Junction (7)XO  06:25+706:40+915m--2-1559.44525mECoRKhordha, Odisha
9BBSBhubaneswar (4)X  07:05+1107:10+115m22-1540.45540mECoRBhubaneshwar, Odisha
10DNKLDhenkanal (2)  08:17+2008:18+211m--2-1478.77559mECoRDhenkanal, Odisha
11TLHRTalcher09:00+3409:25+3325m--2-1426.51686mECoRSub-division Angul district, Odisha
12ANGLAngul (2)X  10:33+610:35+102m--2-1408.473120mECoRAngul District, Odisha
13BONABoinda  11:07+2811:08+301m--2-1369.478292mECoRState Highway 62, Odisha
14RAIRRairakhol  11:44+3511:45+371m--2-1322.957144mECoRSH 24, Odisha
15SBPSambalpur Junction (3)13:00+2913:20+3020m12-1251.815159mECoRSambalpur, Odisha
16SBPDSambalpur Road  13:26+213:28+22m22-1250.322161mECoRSambalpur, Odisha
17JSGJharsuguda Junction (5)XOO14:40+3015:15+2335m12-1203.278236mSERJharsuguda, Odisha
18BRJNBrajrajnagar  15:24+2815:25+291m--2-1191.559212mSECRBrajrajnagar, Odisha
19BPHBelpahar  15:34+3015:35+351m--2-1182.685235mSECRBelpahar, Odisha
20RIGRaigarh (3)  16:11+4216:13+422m--2-1131.589220mSECRRaigarh, Chhattisgarh
21KHSKharsiaX  16:36+5616:37+581m--2-1097.671259mSECRNational Highway 200, Chhattisgarh
22SKTSakti (4)  16:50+1:0016:51+1:011m--2-1082.252237mSECRJanjgir-Champa, Chhattisgarh
23CPHChampa Junction (3)X  17:26+5417:31+525m22-1051.870264mSECRNational Highway 200 (07819-245767), Chhattisgarh
24AKTAkaltara (4)  17:53+5417:54+551m--2-1026.029284mSECRDist. Janjgir Champa, Chhattisgarh
25BSPBilaspur Junction (8)  18:50+2519:05+3115m52-998.862271mSECRBilaspur, Chhattisgarh
26PNDPendra Road  20:43+1:0720:45+1:082m--2-897.261620mSECRBilaspur district, Chhattisgarh
27APRAnuppur Junction (3)  21:35+1:0821:40+1:075m--2-846.155487mSECRAnuppur, Madhya Pradesh
28SDLShahdol  22:25+5822:27+582m--2-805.259466mSECR, Madhya Pradesh
29UMRUmaria (3)X  23:35+4623:37+462m--2-737.933469mSECRUmaria, Madhya Pradesh
30KMZKatni Murwara  01:25+2301:35+2610m--3-679.174385mWCRMP 483504 ?, Madhya Pradesh
31DMODamoh (2)  03:03+3303:05+342m--3-570.066365mWCRDamoh, Madhya Pradesh
32SGOSaugor (2)  04:15+4004:20+395m--3-492.960519mWCRMP 470001Madhya pradesh, Madhya Pradesh
33KYEKhurai (5)  05:13+3205:15+322m--3-440.127439mWCRKhurai, Madhya Pradesh
34MAKRMalkheri Junction (2)  05:53+1705:55+202m--3-422.955421mWCRGuna, Madhya Pradesh
35LARLalitpur (3)X  07:04+1907:05+331m33-359.772373mNCRLalitpur, Uttar Pradesh
36JHSJhansi Junction (7)X  08:20+1908:28+278m23-269.476259mNCRJhansi, Uttar Pradesh
37GWLGwalior Junction (4)  09:45+4409:50+445m23-171.775214mNCRGwalior, Madhya Pradesh
38AGCAgra Cantt. (6)X  11:25+5311:30+545m13-53.777174mNCRAgra, Uttar Pradesh
39MTJ»Mathura Junction (10)»  12:12+1:0912:15+1:093m230.067179mNCRMathura, Uttar Pradesh
40NZMDelhi Hazrat Nizamuddin (7)XO  14:15+1:0714:17+1:082m33133.916209mNRNizamuddin East/Sarai KaleKhan Bus Terminal, Delhi NCT
41NDLSNew Delhi (16)  14:45+1:0915:15+1:0230m73141.366215mNRNew Delhi, Delhi NCT
42PNPPanipat Junction (5)  16:37+1:2616:39+1:262m33230.957235mNRPanipat, Haryana
43UMBAmbala Cantt. Junction (7)O  18:35+1:1218:45+1:1210m73340.680278mNRAmbala 133001, Haryana
44LDHLudhiana Junction (7)X  20:10+1:2020:15+1:335m33454.243246mNRLudhiana 141001, Punjab
45JUCJalandhar City Junction (5)  21:35+1:1121:40+1:135m33511.057239mNRJalandhar 144001, Punjab
46BEASBeas Junction (2)  22:18+1:0922:19+1:101m13547.127238mNRBeas, Punjab
47ASR•Amritsar Junction (5)•  23:55+31-23590.1-233mNRAmritsar 143002, Punjab
Scroll to Top
Scroll to Bottom